sensor_id;sensor_type;location;lat;lon;timestamp;temperature;humidity
8858;DHT22;4465;50.904;4.696;2023-04-01T00:01:39;10.00;99.90
8858;DHT22;4465;50.904;4.696;2023-04-01T00:04:05;10.00;99.90
8858;DHT22;4465;50.904;4.696;2023-04-01T00:06:33;10.00;99.90
8858;DHT22;4465;50.904;4.696;2023-04-01T00:08:59;10.00;99.90
8858;DHT22;4465;50.904;4.696;2023-04-01T00:11:25;10.00;99.90
8858;DHT22;4465;50.904;4.696;2023-04-01T00:13:55;10.00;99.90
8858;DHT22;4465;50.904;4.696;2023-04-01T00:16:21;10.00;99.90
8858;DHT22;4465;50.904;4.696;2023-04-01T00:18:47;10.00;99.90
8858;DHT22;4465;50.904;4.696;2023-04-01T00:21:13;10.00;99.90
8858;DHT22;4465;50.904;4.696;2023-04-01T00:23:38;10.00;99.90
8858;DHT22;4465;50.904;4.696;2023-04-01T00:26:07;10.00;99.90
8858;DHT22;4465;50.904;4.696;2023-04-01T00:28:35;10.00;99.90
8858;DHT22;4465;50.904;4.696;2023-04-01T00:31:05;10.00;99.90
8858;DHT22;4465;50.904;4.696;2023-04-01T00:33:31;9.90;99.90
8858;DHT22;4465;50.904;4.696;2023-04-01T00:36:05;9.90;99.90
8858;DHT22;4465;50.904;4.696;2023-04-01T00:38:31;9.90;99.90
8858;DHT22;4465;50.904;4.696;2023-04-01T00:40:57;10.00;99.90
8858;DHT22;4465;50.904;4.696;2023-04-01T00:43:23;9.90;99.90
8858;DHT22;4465;50.904;4.696;2023-04-01T00:45:49;10.00;99.90
8858;DHT22;4465;50.904;4.696;2023-04-01T00:48:16;10.00;99.90
8858;DHT22;4465;50.904;4.696;2023-04-01T00:50:44;10.00;99.90
8858;DHT22;4465;50.904;4.696;2023-04-01T00:53:11;10.00;99.90
8858;DHT22;4465;50.904;4.696;2023-04-01T00:55:38;10.00;99.90
8858;DHT22;4465;50.904;4.696;2023-04-01T00:58:05;10.00;99.90
8858;DHT22;4465;50.904;4.696;2023-04-01T01:00:35;10.00;99.90
8858;DHT22;4465;50.904;4.696;2023-04-01T01:03:04;10.00;99.90
8858;DHT22;4465;50.904;4.696;2023-04-01T01:05:35;9.90;99.90
8858;DHT22;4465;50.904;4.696;2023-04-01T01:10:48;9.90;99.90
8858;DHT22;4465;50.904;4.696;2023-04-01T01:16:20;9.90;99.90
8858;DHT22;4465;50.904;4.696;2023-04-01T01:21:57;9.90;99.90
8858;DHT22;4465;50.904;4.696;2023-04-01T01:24:16;9.90;99.90
8858;DHT22;4465;50.904;4.696;2023-04-01T01:29:32;9.90;99.90
8858;DHT22;4465;50.904;4.696;2023-04-01T01:37:00;9.90;99.90
8858;DHT22;4465;50.904;4.696;2023-04-01T01:39:30;9.90;99.90
8858;DHT22;4465;50.904;4.696;2023-04-01T01:41:57;9.90;99.90
8858;DHT22;4465;50.904;4.696;2023-04-01T01:44:24;9.80;99.90
8858;DHT22;4465;50.904;4.696;2023-04-01T01:46:50;9.80;99.90
8858;DHT22;4465;50.904;4.696;2023-04-01T01:49:16;9.80;99.90
8858;DHT22;4465;50.904;4.696;2023-04-01T01:51:49;9.80;99.90
8858;DHT22;4465;50.904;4.696;2023-04-01T01:54:18;9.80;99.90
8858;DHT22;4465;50.904;4.696;2023-04-01T01:56:47;9.80;99.90
8858;DHT22;4465;50.904;4.696;2023-04-01T01:59:14;9.80;99.90
8858;DHT22;4465;50.904;4.696;2023-04-01T02:01:42;9.80;99.90
8858;DHT22;4465;50.904;4.696;2023-04-01T02:04:09;9.80;99.90
8858;DHT22;4465;50.904;4.696;2023-04-01T02:06:39;9.80;99.90
8858;DHT22;4465;50.904;4.696;2023-04-01T02:09:07;9.80;99.90
8858;DHT22;4465;50.904;4.696;2023-04-01T02:11:46;9.80;99.90
8858;DHT22;4465;50.904;4.696;2023-04-01T02:14:15;9.80;99.90
8858;DHT22;4465;50.904;4.696;2023-04-01T02:16:51;9.80;99.90
8858;DHT22;4465;50.904;4.696;2023-04-01T02:19:19;9.80;99.90
8858;DHT22;4465;50.904;4.696;2023-04-01T02:21:52;9.80;99.90
8858;DHT22;4465;50.904;4.696;2023-04-01T02:24:19;9.70;99.90
8858;DHT22;4465;50.904;4.696;2023-04-01T02:26:48;9.70;99.90
8858;DHT22;4465;50.904;4.696;2023-04-01T02:29:15;9.70;99.90
8858;DHT22;4465;50.904;4.696;2023-04-01T02:31:42;9.70;99.90
8858;DHT22;4465;50.904;4.696;2023-04-01T02:34:08;9.70;99.90
8858;DHT22;4465;50.904;4.696;2023-04-01T02:36:34;9.70;99.90
8858;DHT22;4465;50.904;4.696;2023-04-01T02:39:00;9.60;99.90
8858;DHT22;4465;50.904;4.696;2023-04-01T02:41:28;9.60;99.90
8858;DHT22;4465;50.904;4.696;2023-04-01T02:43:53;9.60;99.90
8858;DHT22;4465;50.904;4.696;2023-04-01T02:46:20;9.60;99.90
8858;DHT22;4465;50.904;4.696;2023-04-01T02:48:48;9.60;99.90
8858;DHT22;4465;50.904;4.696;2023-04-01T02:51:14;9.50;99.90
8858;DHT22;4465;50.904;4.696;2023-04-01T02:53:40;9.60;99.90
8858;DHT22;4465;50.904;4.696;2023-04-01T02:56:08;9.60;99.90
8858;DHT22;4465;50.904;4.696;2023-04-01T02:58:36;9.60;99.90
8858;DHT22;4465;50.904;4.696;2023-04-01T03:01:02;9.60;99.90
8858;DHT22;4465;50.904;4.696;2023-04-01T03:03:30;9.60;99.90
8858;DHT22;4465;50.904;4.696;2023-04-01T03:05:56;9.60;99.90
8858;DHT22;4465;50.904;4.696;2023-04-01T03:08:24;9.60;99.90
8858;DHT22;4465;50.904;4.696;2023-04-01T03:10:50;9.50;99.90
8858;DHT22;4465;50.904;4.696;2023-04-01T03:13:16;9.50;99.90
8858;DHT22;4465;50.904;4.696;2023-04-01T03:15:41;9.50;99.90
8858;DHT22;4465;50.904;4.696;2023-04-01T03:18:07;9.50;99.90
8858;DHT22;4465;50.904;4.696;2023-04-01T03:20:33;9.50;99.90
8858;DHT22;4465;50.904;4.696;2023-04-01T03:22:59;9.50;99.90
8858;DHT22;4465;50.904;4.696;2023-04-01T03:25:24;9.60;99.90
8858;DHT22;4465;50.904;4.696;2023-04-01T03:27:53;9.50;99.90
8858;DHT22;4465;50.904;4.696;2023-04-01T03:30:24;9.60;99.90
8858;DHT22;4465;50.904;4.696;2023-04-01T03:32:52;9.50;99.90
8858;DHT22;4465;50.904;4.696;2023-04-01T03:35:18;9.50;99.90
8858;DHT22;4465;50.904;4.696;2023-04-01T03:37:43;9.50;99.90
8858;DHT22;4465;50.904;4.696;2023-04-01T03:40:10;9.50;99.90
8858;DHT22;4465;50.904;4.696;2023-04-01T03:42:38;9.50;99.90
8858;DHT22;4465;50.904;4.696;2023-04-01T03:45:04;9.50;99.90
8858;DHT22;4465;50.904;4.696;2023-04-01T03:47:30;9.50;99.90
8858;DHT22;4465;50.904;4.696;2023-04-01T03:49:58;9.50;99.90
8858;DHT22;4465;50.904;4.696;2023-04-01T03:52:24;9.50;99.90
8858;DHT22;4465;50.904;4.696;2023-04-01T03:54:50;9.50;99.90
8858;DHT22;4465;50.904;4.696;2023-04-01T03:57:16;9.50;99.90
8858;DHT22;4465;50.904;4.696;2023-04-01T03:59:42;9.60;99.90
8858;DHT22;4465;50.904;4.696;2023-04-01T04:02:10;9.50;99.90
8858;DHT22;4465;50.904;4.696;2023-04-01T04:04:36;9.50;99.90
8858;DHT22;4465;50.904;4.696;2023-04-01T04:07:01;9.50;99.90
8858;DHT22;4465;50.904;4.696;2023-04-01T04:09:29;9.50;99.90
8858;DHT22;4465;50.904;4.696;2023-04-01T04:11:55;9.50;99.90
8858;DHT22;4465;50.904;4.696;2023-04-01T04:14:23;9.50;99.90
8858;DHT22;4465;50.904;4.696;2023-04-01T04:16:49;9.50;99.90
8858;DHT22;4465;50.904;4.696;2023-04-01T04:19:15;9.50;99.90
8858;DHT22;4465;50.904;4.696;2023-04-01T04:21:41;9.50;99.90
8858;DHT22;4465;50.904;4.696;2023-04-01T04:24:07;9.50;99.90
8858;DHT22;4465;50.904;4.696;2023-04-01T04:26:33;9.50;99.90
8858;DHT22;4465;50.904;4.696;2023-04-01T04:28:59;9.40;99.90
8858;DHT22;4465;50.904;4.696;2023-04-01T04:31:25;9.50;99.90
8858;DHT22;4465;50.904;4.696;2023-04-01T04:33:51;9.50;99.90
8858;DHT22;4465;50.904;4.696;2023-04-01T04:36:19;9.50;99.90
8858;DHT22;4465;50.904;4.696;2023-04-01T04:38:50;9.50;99.90
8858;DHT22;4465;50.904;4.696;2023-04-01T04:41:19;9.50;99.90
8858;DHT22;4465;50.904;4.696;2023-04-01T04:43:49;9.50;99.90
8858;DHT22;4465;50.904;4.696;2023-04-01T04:46:18;9.50;99.90
8858;DHT22;4465;50.904;4.696;2023-04-01T04:48:46;9.50;99.90
8858;DHT22;4465;50.904;4.696;2023-04-01T04:51:13;9.50;99.90
8858;DHT22;4465;50.904;4.696;2023-04-01T04:53:41;9.50;99.90
8858;DHT22;4465;50.904;4.696;2023-04-01T04:56:10;9.50;99.90
8858;DHT22;4465;50.904;4.696;2023-04-01T04:58:36;9.50;99.90
8858;DHT22;4465;50.904;4.696;2023-04-01T05:01:06;9.50;99.90
8858;DHT22;4465;50.904;4.696;2023-04-01T05:03:34;9.50;99.90
8858;DHT22;4465;50.904;4.696;2023-04-01T05:06:03;9.50;99.90
8858;DHT22;4465;50.904;4.696;2023-04-01T05:08:29;9.50;99.90
8858;DHT22;4465;50.904;4.696;2023-04-01T05:10:55;9.50;99.90
8858;DHT22;4465;50.904;4.696;2023-04-01T05:13:20;9.50;99.90
8858;DHT22;4465;50.904;4.696;2023-04-01T05:15:46;9.40;99.90
8858;DHT22;4465;50.904;4.696;2023-04-01T05:18:12;9.50;99.90
8858;DHT22;4465;50.904;4.696;2023-04-01T05:20:38;9.40;99.90
8858;DHT22;4465;50.904;4.696;2023-04-01T05:23:03;9.40;99.90
8858;DHT22;4465;50.904;4.696;2023-04-01T05:25:29;9.40;99.90
8858;DHT22;4465;50.904;4.696;2023-04-01T05:27:55;9.40;99.90
8858;DHT22;4465;50.904;4.696;2023-04-01T05:30:21;9.40;99.90
8858;DHT22;4465;50.904;4.696;2023-04-01T05:32:47;9.40;99.90
8858;DHT22;4465;50.904;4.696;2023-04-01T05:35:15;9.50;99.90
8858;DHT22;4465;50.904;4.696;2023-04-01T05:37:40;9.50;99.90
8858;DHT22;4465;50.904;4.696;2023-04-01T05:40:06;9.40;99.90
8858;DHT22;4465;50.904;4.696;2023-04-01T05:42:35;9.50;99.90
8858;DHT22;4465;50.904;4.696;2023-04-01T05:45:06;9.40;99.90
8858;DHT22;4465;50.904;4.696;2023-04-01T05:47:32;9.50;99.90
8858;DHT22;4465;50.904;4.696;2023-04-01T05:49:58;9.50;99.90
8858;DHT22;4465;50.904;4.696;2023-04-01T05:52:24;9.50;99.90
8858;DHT22;4465;50.904;4.696;2023-04-01T05:54:50;9.40;99.90
8858;DHT22;4465;50.904;4.696;2023-04-01T05:57:16;9.40;99.90
8858;DHT22;4465;50.904;4.696;2023-04-01T05:59:44;9.40;99.90
8858;DHT22;4465;50.904;4.696;2023-04-01T06:02:16;9.40;99.90
8858;DHT22;4465;50.904;4.696;2023-04-01T06:04:42;9.50;99.90
8858;DHT22;4465;50.904;4.696;2023-04-01T06:07:12;9.40;99.90
8858;DHT22;4465;50.904;4.696;2023-04-01T06:09:38;9.40;99.90
8858;DHT22;4465;50.904;4.696;2023-04-01T06:17:12;9.50;99.90
8858;DHT22;4465;50.904;4.696;2023-04-01T06:57:51;9.40;99.90
8858;DHT22;4465;50.904;4.696;2023-04-01T07:00:31;9.50;99.90
8858;DHT22;4465;50.904;4.696;2023-04-01T07:05:29;9.40;99.90
8858;DHT22;4465;50.904;4.696;2023-04-01T07:07:56;9.40;99.90
8858;DHT22;4465;50.904;4.696;2023-04-01T07:10:25;9.50;99.90
8858;DHT22;4465;50.904;4.696;2023-04-01T07:12:58;9.50;99.90
8858;DHT22;4465;50.904;4.696;2023-04-01T07:15:28;9.50;99.90
8858;DHT22;4465;50.904;4.696;2023-04-01T07:18:02;9.50;99.90
8858;DHT22;4465;50.904;4.696;2023-04-01T07:20:32;9.50;99.90
8858;DHT22;4465;50.904;4.696;2023-04-01T07:22:59;9.50;99.90
8858;DHT22;4465;50.904;4.696;2023-04-01T07:25:27;9.50;99.90
8858;DHT22;4465;50.904;4.696;2023-04-01T07:27:56;9.50;99.90
8858;DHT22;4465;50.904;4.696;2023-04-01T07:30:29;9.40;99.90
8858;DHT22;4465;50.904;4.696;2023-04-01T07:33:07;9.50;99.90
8858;DHT22;4465;50.904;4.696;2023-04-01T07:35:41;9.40;99.90
8858;DHT22;4465;50.904;4.696;2023-04-01T07:41:07;9.50;99.90
8858;DHT22;4465;50.904;4.696;2023-04-01T07:51:20;9.50;99.90
8858;DHT22;4465;50.904;4.696;2023-04-01T07:56:25;9.50;99.90
8858;DHT22;4465;50.904;4.696;2023-04-01T07:59:06;9.50;99.90
8858;DHT22;4465;50.904;4.696;2023-04-01T08:01:39;9.50;99.90
8858;DHT22;4465;50.904;4.696;2023-04-01T08:09:37;9.60;99.90
8858;DHT22;4465;50.904;4.696;2023-04-01T08:17:18;9.70;99.90
8858;DHT22;4465;50.904;4.696;2023-04-01T08:22:41;9.70;99.90
8858;DHT22;4465;50.904;4.696;2023-04-01T08:25:10;9.70;99.90
8858;DHT22;4465;50.904;4.696;2023-04-01T08:27:40;9.70;99.90
8858;DHT22;4465;50.904;4.696;2023-04-01T08:30:26;9.70;99.90
8858;DHT22;4465;50.904;4.696;2023-04-01T08:32:58;9.70;99.90
8858;DHT22;4465;50.904;4.696;2023-04-01T08:35:29;9.70;99.90
8858;DHT22;4465;50.904;4.696;2023-04-01T08:38:06;9.70;99.90
8858;DHT22;4465;50.904;4.696;2023-04-01T08:40:35;9.70;99.90
8858;DHT22;4465;50.904;4.696;2023-04-01T08:45:56;9.70;99.90
8858;DHT22;4465;50.904;4.696;2023-04-01T08:56:34;9.80;99.90
8858;DHT22;4465;50.904;4.696;2023-04-01T09:19:42;9.90;99.90
8858;DHT22;4465;50.904;4.696;2023-04-01T09:24:51;10.10;99.90
8858;DHT22;4465;50.904;4.696;2023-04-01T09:27:29;10.10;99.90
8858;DHT22;4465;50.904;4.696;2023-04-01T09:38:04;10.20;99.90
8858;DHT22;4465;50.904;4.696;2023-04-01T09:45:52;10.30;99.90
8858;DHT22;4465;50.904;4.696;2023-04-01T10:07:08;10.30;99.90
8858;DHT22;4465;50.904;4.696;2023-04-01T10:25:29;10.40;99.90
8858;DHT22;4465;50.904;4.696;2023-04-01T10:35:51;10.60;99.90
8858;DHT22;4465;50.904;4.696;2023-04-01T10:46:39;10.90;99.90
8858;DHT22;4465;50.904;4.696;2023-04-01T10:52:12;10.90;99.90
8858;DHT22;4465;50.904;4.696;2023-04-01T11:13:09;11.00;99.90
8858;DHT22;4465;50.904;4.696;2023-04-01T11:44:15;10.50;99.90
8858;DHT22;4465;50.904;4.696;2023-04-01T11:57:35;10.50;99.90
8858;DHT22;4465;50.904;4.696;2023-04-01T12:03:36;10.60;99.90
8858;DHT22;4465;50.904;4.696;2023-04-01T12:08:23;10.60;99.90
8858;DHT22;4465;50.904;4.696;2023-04-01T12:13:32;10.70;99.90
8858;DHT22;4465;50.904;4.696;2023-04-01T12:18:40;10.80;99.90
8858;DHT22;4465;50.904;4.696;2023-04-01T12:31:22;10.90;99.90
8858;DHT22;4465;50.904;4.696;2023-04-01T12:36:20;10.90;99.90
8858;DHT22;4465;50.904;4.696;2023-04-01T12:39:03;10.90;99.90
8858;DHT22;4465;50.904;4.696;2023-04-01T12:41:52;10.90;99.90
8858;DHT22;4465;50.904;4.696;2023-04-01T13:07:40;10.60;99.90
8858;DHT22;4465;50.904;4.696;2023-04-01T13:28:09;10.60;99.90
8858;DHT22;4465;50.904;4.696;2023-04-01T13:43:31;10.80;99.90
8858;DHT22;4465;50.904;4.696;2023-04-01T13:51:02;10.80;99.90
8858;DHT22;4465;50.904;4.696;2023-04-01T14:06:13;10.50;99.90
8858;DHT22;4465;50.904;4.696;2023-04-01T14:11:36;10.60;99.90
8858;DHT22;4465;50.904;4.696;2023-04-01T14:22:32;10.50;99.90
8858;DHT22;4465;50.904;4.696;2023-04-01T14:25:13;10.50;99.90
8858;DHT22;4465;50.904;4.696;2023-04-01T14:48:37;10.60;99.90
8858;DHT22;4465;50.904;4.696;2023-04-01T14:51:48;10.70;99.90
8858;DHT22;4465;50.904;4.696;2023-04-01T14:54:04;10.80;99.90
8858;DHT22;4465;50.904;4.696;2023-04-01T14:56:35;10.80;99.90
8858;DHT22;4465;50.904;4.696;2023-04-01T14:59:01;10.90;99.90
8858;DHT22;4465;50.904;4.696;2023-04-01T15:01:33;10.90;99.90
8858;DHT22;4465;50.904;4.696;2023-04-01T15:09:18;10.90;99.90
8858;DHT22;4465;50.904;4.696;2023-04-01T15:17:26;10.90;99.90
8858;DHT22;4465;50.904;4.696;2023-04-01T15:27:47;10.80;99.90
8858;DHT22;4465;50.904;4.696;2023-04-01T15:32:55;10.70;99.90
8858;DHT22;4465;50.904;4.696;2023-04-01T15:45:22;10.50;99.90
8858;DHT22;4465;50.904;4.696;2023-04-01T15:51:05;10.50;99.90
8858;DHT22;4465;50.904;4.696;2023-04-01T16:14:18;10.20;99.90
8858;DHT22;4465;50.904;4.696;2023-04-01T16:24:43;10.10;99.90
8858;DHT22;4465;50.904;4.696;2023-04-01T16:35:14;9.90;99.90
8858;DHT22;4465;50.904;4.696;2023-04-01T16:37:34;9.90;99.90
8858;DHT22;4465;50.904;4.696;2023-04-01T16:45:32;9.80;99.90
8858;DHT22;4465;50.904;4.696;2023-04-01T16:48:21;9.70;99.90
8858;DHT22;4465;50.904;4.696;2023-04-01T16:53:25;9.70;99.90
8858;DHT22;4465;50.904;4.696;2023-04-01T16:55:55;9.70;99.90
8858;DHT22;4465;50.904;4.696;2023-04-01T16:58:26;9.60;99.90
8858;DHT22;4465;50.904;4.696;2023-04-01T17:00:55;9.60;99.90
8858;DHT22;4465;50.904;4.696;2023-04-01T17:03:27;9.60;99.90
8858;DHT22;4465;50.904;4.696;2023-04-01T17:05:58;9.60;99.90
8858;DHT22;4465;50.904;4.696;2023-04-01T17:08:48;9.60;99.90
8858;DHT22;4465;50.904;4.696;2023-04-01T17:11:19;9.60;99.90
8858;DHT22;4465;50.904;4.696;2023-04-01T17:13:52;9.50;99.90
8858;DHT22;4465;50.904;4.696;2023-04-01T17:18:54;9.50;99.90
8858;DHT22;4465;50.904;4.696;2023-04-01T17:21:38;9.50;99.90
8858;DHT22;4465;50.904;4.696;2023-04-01T17:26:38;9.50;99.90
8858;DHT22;4465;50.904;4.696;2023-04-01T17:29:20;9.40;99.90
8858;DHT22;4465;50.904;4.696;2023-04-01T17:47:23;9.40;99.90
8858;DHT22;4465;50.904;4.696;2023-04-01T18:02:46;9.30;99.90
8858;DHT22;4465;50.904;4.696;2023-04-01T18:15:46;9.30;99.90
8858;DHT22;4465;50.904;4.696;2023-04-01T18:23:46;9.30;99.90
8858;DHT22;4465;50.904;4.696;2023-04-01T18:26:23;9.30;99.90
8858;DHT22;4465;50.904;4.696;2023-04-01T18:31:40;9.30;99.90
8858;DHT22;4465;50.904;4.696;2023-04-01T18:34:15;9.30;99.90
8858;DHT22;4465;50.904;4.696;2023-04-01T18:36:47;9.40;99.90
8858;DHT22;4465;50.904;4.696;2023-04-01T18:42:00;9.30;99.90
8858;DHT22;4465;50.904;4.696;2023-04-01T18:44:31;9.30;99.90
8858;DHT22;4465;50.904;4.696;2023-04-01T18:47:23;9.30;99.90
8858;DHT22;4465;50.904;4.696;2023-04-01T18:57:51;9.40;99.90
8858;DHT22;4465;50.904;4.696;2023-04-01T19:02:52;9.40;99.90
8858;DHT22;4465;50.904;4.696;2023-04-01T19:05:30;9.40;99.90
8858;DHT22;4465;50.904;4.696;2023-04-01T19:13:45;9.40;99.90
8858;DHT22;4465;50.904;4.696;2023-04-01T19:26:22;9.40;99.90
8858;DHT22;4465;50.904;4.696;2023-04-01T19:28:54;9.40;99.90
8858;DHT22;4465;50.904;4.696;2023-04-01T19:31:44;9.30;99.90
8858;DHT22;4465;50.904;4.696;2023-04-01T19:36:59;9.30;99.90
8858;DHT22;4465;50.904;4.696;2023-04-01T20:04:43;9.30;99.90
8858;DHT22;4465;50.904;4.696;2023-04-01T20:07:12;9.30;99.90
8858;DHT22;4465;50.904;4.696;2023-04-01T20:09:45;9.20;99.90
8858;DHT22;4465;50.904;4.696;2023-04-01T20:15:03;9.30;99.90
8858;DHT22;4465;50.904;4.696;2023-04-01T20:17:45;9.20;99.90
8858;DHT22;4465;50.904;4.696;2023-04-01T20:20:20;9.20;99.90
8858;DHT22;4465;50.904;4.696;2023-04-01T20:25:41;9.20;99.90
8858;DHT22;4465;50.904;4.696;2023-04-01T20:28:19;9.20;99.90
8858;DHT22;4465;50.904;4.696;2023-04-01T20:44:09;9.20;99.90
8858;DHT22;4465;50.904;4.696;2023-04-01T20:51:59;9.20;99.90
8858;DHT22;4465;50.904;4.696;2023-04-01T20:54:33;9.20;99.90
8858;DHT22;4465;50.904;4.696;2023-04-01T21:02:05;9.30;99.90
8858;DHT22;4465;50.904;4.696;2023-04-01T21:05:04;9.30;99.90
8858;DHT22;4465;50.904;4.696;2023-04-01T21:07:32;9.30;99.90
8858;DHT22;4465;50.904;4.696;2023-04-01T21:15:39;9.40;99.90
8858;DHT22;4465;50.904;4.696;2023-04-01T21:18:18;9.40;99.90
8858;DHT22;4465;50.904;4.696;2023-04-01T21:31:05;9.50;99.90
8858;DHT22;4465;50.904;4.696;2023-04-01T22:00:09;9.70;99.90
8858;DHT22;4465;50.904;4.696;2023-04-01T22:05:19;9.80;99.90
8858;DHT22;4465;50.904;4.696;2023-04-01T22:18:15;9.80;99.90
8858;DHT22;4465;50.904;4.696;2023-04-01T22:20:50;9.80;99.90
8858;DHT22;4465;50.904;4.696;2023-04-01T22:26:10;9.80;99.90
8858;DHT22;4465;50.904;4.696;2023-04-01T22:28:52;9.80;99.90
8858;DHT22;4465;50.904;4.696;2023-04-01T22:31:22;9.80;99.90
8858;DHT22;4465;50.904;4.696;2023-04-01T22:34:04;9.70;99.90
8858;DHT22;4465;50.904;4.696;2023-04-01T22:39:20;9.70;99.90
8858;DHT22;4465;50.904;4.696;2023-04-01T22:47:04;9.70;99.90
8858;DHT22;4465;50.904;4.696;2023-04-01T22:49:35;9.70;99.90
8858;DHT22;4465;50.904;4.696;2023-04-01T22:52:23;9.70;99.90
8858;DHT22;4465;50.904;4.696;2023-04-01T22:54:54;9.70;99.90
8858;DHT22;4465;50.904;4.696;2023-04-01T23:00:24;9.70;99.90
8858;DHT22;4465;50.904;4.696;2023-04-01T23:05:26;9.60;99.90
8858;DHT22;4465;50.904;4.696;2023-04-01T23:10:48;9.60;99.90
8858;DHT22;4465;50.904;4.696;2023-04-01T23:13:20;9.60;99.90
8858;DHT22;4465;50.904;4.696;2023-04-01T23:15:48;9.60;99.90
8858;DHT22;4465;50.904;4.696;2023-04-01T23:18:24;9.60;99.90
8858;DHT22;4465;50.904;4.696;2023-04-01T23:21:09;9.60;99.90
8858;DHT22;4465;50.904;4.696;2023-04-01T23:28:40;9.50;99.90
8858;DHT22;4465;50.904;4.696;2023-04-01T23:34:15;9.50;99.90
8858;DHT22;4465;50.904;4.696;2023-04-01T23:36:42;9.50;99.90
8858;DHT22;4465;50.904;4.696;2023-04-01T23:41:56;9.40;99.90
8858;DHT22;4465;50.904;4.696;2023-04-01T23:44:26;9.40;99.90
8858;DHT22;4465;50.904;4.696;2023-04-01T23:46:53;9.40;99.90
8858;DHT22;4465;50.904;4.696;2023-04-01T23:49:21;9.40;99.90
8858;DHT22;4465;50.904;4.696;2023-04-01T23:57:14;9.30;99.90
8858;DHT22;4465;50.904;4.696;2023-04-01T23:59:41;9.30;99.90
